Time;durP1;ratioP1;P1;durP2;ratioP2;P2;SDS_P1;SDS_P2;PMS_P1;PMS_P2;Temp;Humidity;BMP_temperature;BMP_pressure;BME280_temperature;BME280_humidity;BME280_pressure;Samples;Min_cycle;Max_cycle;Signal;HPM_P1;HPM_P2
2023/05/07 00:00:19;;;;;;;;;;;;;;;-144.99;100.00;52360.44;5091583;28;20373;-79
2023/05/07 00:02:46;;;;;;;;;;;;;;;-144.99;100.00;52354.34;5093474;28;19931;-79
2023/05/07 00:05:13;;;;;;;;;;;;;;;-144.99;100.00;52354.34;5101134;28;19935;-78
2023/05/07 00:07:40;;;;;;;;;;;;;;;-144.99;100.00;52364.53;5096541;28;19981;-80
2023/05/07 00:10:07;;;;;;;;;;;;;;;-144.99;100.00;52350.25;5100752;28;20014;-78
2023/05/07 00:12:34;;;;;;;;;;;;;;;-144.99;100.00;52354.34;5102681;28;19932;-75
2023/05/07 00:15:02;;;;;;;;;;;;;;;-144.99;100.00;52366.56;5097541;28;19931;-75
2023/05/07 00:17:29;;;;;;;;;;;;;;;-144.99;100.00;52399.19;5101886;28;20389;-75
2023/05/07 00:19:55;;;;;;;;;;;;;;;-144.99;100.00;52354.34;5107347;28;20274;-70
2023/05/07 00:22:22;;;;;;;;;;;;;;;-144.99;100.00;52354.34;5096022;28;19928;-70
2023/05/07 00:24:48;;;;;;;;;;;;;;;-144.99;100.00;52342.09;5092252;28;20029;-69
2023/05/07 00:27:15;;;;;;;;;;;;;;;-144.99;100.00;52378.78;5098144;28;20335;-70
2023/05/07 00:29:41;;;;;;;;;;;;;;;-144.99;100.00;52386.94;5096799;28;20023;-70
2023/05/07 00:32:10;;;;;;;;;;;;;;;-144.99;100.00;52354.34;5091268;28;20491;-67
2023/05/07 00:34:36;;;;;;;;;;;;;;;-144.99;100.00;52362.50;5097865;28;19971;-67
2023/05/07 00:37:03;;;;;;;;;;;;;;;-144.99;100.00;52395.09;5094013;28;19996;-67
2023/05/07 00:39:29;;;;;;;;;;;;;;;-144.99;100.00;52358.41;5094639;28;20398;-67
2023/05/07 00:41:56;;;;;;;;;;;;;;;-144.99;100.00;52358.41;5091435;28;19924;-77
2023/05/07 00:44:22;;;;;;;;;;;;;;;-144.99;100.00;52350.25;5097047;28;19928;-72
2023/05/07 00:46:49;;;;;;;;;;;;;;;-144.99;100.00;52366.56;5090355;28;19983;-71
2023/05/07 00:49:17;;;;;;;;;;;;;;;-144.99;100.00;52364.53;5101302;28;20356;-72
2023/05/07 00:51:44;;;;;;;;;;;;;;;-144.99;100.00;52374.72;5106623;28;19932;-72
2023/05/07 00:54:11;;;;;;;;;;;;;;;-144.99;100.00;52342.09;5099375;27;20004;-72
2023/05/07 00:56:39;;;;;;;;;;;;;;;-144.99;100.00;52374.72;5090371;28;20016;-72
2023/05/07 00:59:06;;;;;;;;;;;;;;;-144.99;100.00;52362.50;5097470;28;19935;-73
2023/05/07 01:01:33;;;;;;;;;;;;;;;-144.99;100.00;52362.50;5111908;27;20406;-73
2023/05/07 01:03:59;;;;;;;;;;;;;;;-144.99;100.00;52388.97;5090427;28;19955;-72
2023/05/07 01:06:28;;;;;;;;;;;;;;;-144.99;100.00;52342.09;5105065;28;19927;-75
2023/05/07 01:08:56;;;;;;;;;;;;;;;-144.99;100.00;52358.41;5098392;28;20292;-74
2023/05/07 01:11:23;;;;;;;;;;;;;;;-144.99;100.00;52329.88;5097612;28;20016;-77
2023/05/07 01:13:51;;;;;;;;;;;;;;;-144.99;100.00;52350.25;5090364;28;19967;-68
2023/05/07 01:16:17;;;;;;;;;;;;;;;-144.99;100.00;52399.19;5092107;28;19924;-66
2023/05/07 01:18:44;;;;;;;;;;;;;;;-144.99;100.00;52386.94;5089911;28;20355;-66
2023/05/07 01:21:12;;;;;;;;;;;;;;;-144.99;100.00;52386.94;5095737;28;19935;-67
2023/05/07 01:23:40;;;;;;;;;;;;;;;-144.99;100.00;52325.81;5093807;28;20010;-68
2023/05/07 01:26:07;;;;;;;;;;;;;;;-144.99;100.00;52366.56;5089135;28;19971;-68
2023/05/07 01:28:33;;;;;;;;;;;;;;;-144.99;100.00;52419.56;5097209;28;19933;-67
2023/05/07 01:31:02;;;;;;;;;;;;;;;-144.99;100.00;52386.94;5095146;28;20019;-68
2023/05/07 01:33:31;;;;;;;;;;;;;;;-144.99;100.00;52386.94;5097875;28;19923;-68
2023/05/07 01:36:00;;;;;;;;;;;;;;;-144.99;100.00;52360.44;5095600;28;19939;-68
2023/05/07 01:38:27;;;;;;;;;;;;;;;-144.99;100.00;52346.19;5092711;28;19924;-68
2023/05/07 01:40:55;;;;;;;;;;;;;;;-144.99;100.00;52354.34;5089152;28;19985;-68
2023/05/07 01:43:22;;;;;;;;;;;;;;;-144.99;100.00;52395.09;5091063;28;19967;-66
2023/05/07 01:45:49;;;;;;;;;;;;;;;-144.99;100.00;52388.97;5088638;28;20026;-64
2023/05/07 01:48:16;;;;;;;;;;;;;;;-144.99;100.00;52370.63;5094464;28;19994;-65
2023/05/07 01:50:43;;;;;;;;;;;;;;;-144.99;100.00;52378.78;5089636;28;19924;-81
2023/05/07 01:53:10;;;;;;;;;;;;;;;-144.99;100.00;52384.91;5093898;28;19924;-79
2023/05/07 01:55:37;;;;;;;;;;;;;;;-144.99;100.00;52370.63;5113509;28;20322;-79
2023/05/07 01:58:05;;;;;;;;;;;;;;;-144.99;100.00;52386.94;5102558;28;19928;-84
2023/05/07 02:00:32;;;;;;;;;;;;;;;-144.99;100.00;52378.78;5129358;27;19928;-82
2023/05/07 02:02:59;;;;;;;;;;;;;;;-144.99;100.00;52340.06;5106026;27;19938;-73
2023/05/07 02:05:25;;;;;;;;;;;;;;;-144.99;100.00;52386.94;5089384;28;19924;-73
2023/05/07 02:07:52;;;;;;;;;;;;;;;-144.99;100.00;52344.16;5092056;28;19950;-73
2023/05/07 02:10:18;;;;;;;;;;;;;;;-144.99;100.00;52378.78;5101214;28;20018;-73
2023/05/07 02:12:45;;;;;;;;;;;;;;;-144.99;100.00;52431.78;5089204;28;19928;-78
2023/05/07 02:15:13;;;;;;;;;;;;;;;-144.99;100.00;52370.63;5101800;28;20262;-77
2023/05/07 02:17:40;;;;;;;;;;;;;;;-144.99;100.00;52358.41;5097026;28;19961;-81
2023/05/07 02:20:13;;;;;;;;;;;;;;;-144.99;100.00;52378.78;5093624;28;19976;-78
2023/05/07 02:22:39;;;;;;;;;;;;;;;-144.99;100.00;52374.72;5090377;28;19944;-79
2023/05/07 02:25:06;;;;;;;;;;;;;;;-144.99;100.00;52393.06;5090577;28;19971;-78
2023/05/07 02:27:32;;;;;;;;;;;;;;;-144.99;100.00;52386.94;5097309;28;19959;-78
2023/05/07 02:29:59;;;;;;;;;;;;;;;-144.99;100.00;52366.56;5091548;28;20418;-77
2023/05/07 02:32:27;;;;;;;;;;;;;;;-144.99;100.00;52366.56;5101573;28;19949;-76
2023/05/07 02:34:53;;;;;;;;;;;;;;;-144.99;100.00;52368.59;5096425;28;19942;-75
2023/05/07 02:37:20;;;;;;;;;;;;;;;-144.99;100.00;52366.56;5090654;28;19978;-77
2023/05/07 02:39:47;;;;;;;;;;;;;;;-144.99;100.00;52397.13;5105026;28;19932;-77
2023/05/07 02:42:13;;;;;;;;;;;;;;;-144.99;100.00;52395.09;5094803;28;19963;-77
2023/05/07 02:44:40;;;;;;;;;;;;;;;-144.99;100.00;52358.41;5090753;28;20040;-77
2023/05/07 02:47:08;;;;;;;;;;;;;;;-144.99;100.00;52370.63;5094834;28;19932;-77
2023/05/07 02:49:36;;;;;;;;;;;;;;;-144.99;100.00;52399.19;5098021;28;19989;-79
2023/05/07 02:52:02;;;;;;;;;;;;;;;-144.99;100.00;52374.72;5095597;28;19955;-68
2023/05/07 02:54:29;;;;;;;;;;;;;;;-144.99;100.00;52366.56;5094522;28;20393;-67
2023/05/07 02:56:56;;;;;;;;;;;;;;;-144.99;100.00;52382.88;5097248;28;20025;-67
2023/05/07 02:59:22;;;;;;;;;;;;;;;-144.99;100.00;52401.22;5088044;28;19931;-67
2023/05/07 03:01:49;;;;;;;;;;;;;;;-144.99;100.00;52360.44;5102170;27;20407;-67
2023/05/07 03:04:15;;;;;;;;;;;;;;;-144.99;100.00;52354.34;5088180;28;20369;-67
2023/05/07 03:06:43;;;;;;;;;;;;;;;-144.99;100.00;52407.31;5093180;28;19935;-67
2023/05/07 03:09:10;;;;;;;;;;;;;;;-144.99;100.00;52384.91;5102349;28;20165;-67
2023/05/07 03:11:36;;;;;;;;;;;;;;;-144.99;100.00;52354.34;5094802;28;20030;-68
2023/05/07 03:14:03;;;;;;;;;;;;;;;-144.99;100.00;52366.56;5089781;28;19928;-67
2023/05/07 03:16:29;;;;;;;;;;;;;;;-144.99;100.00;52358.41;5094462;28;20398;-67
2023/05/07 03:18:56;;;;;;;;;;;;;;;-144.99;100.00;52372.69;5087399;28;19930;-68
2023/05/07 03:21:22;;;;;;;;;;;;;;;-144.99;100.00;52391.03;5096353;28;20290;-68
2023/05/07 03:23:50;;;;;;;;;;;;;;;-144.99;100.00;52358.41;5091923;28;19936;-68
2023/05/07 03:26:17;;;;;;;;;;;;;;;-144.99;100.00;52366.56;5089904;28;20004;-69
2023/05/07 03:28:43;;;;;;;;;;;;;;;-144.99;100.00;52374.72;5096226;28;19924;-69
2023/05/07 03:31:10;;;;;;;;;;;;;;;-144.99;100.00;52419.56;5099115;28;20349;-69
2023/05/07 03:33:40;;;;;;;;;;;;;;;-144.99;100.00;52370.63;5087572;28;19942;-70
2023/05/07 03:36:06;;;;;;;;;;;;;;;-144.99;100.00;52386.94;5093156;28;19932;-68
2023/05/07 03:38:33;;;;;;;;;;;;;;;-144.99;100.00;52374.72;5096492;28;20416;-68
2023/05/07 03:41:01;;;;;;;;;;;;;;;-144.99;100.00;52368.59;5121908;28;19923;-76
2023/05/07 03:43:27;;;;;;;;;;;;;;;-144.99;100.00;52368.59;5118219;28;19989;-77
2023/05/07 03:45:54;;;;;;;;;;;;;;;-144.99;100.00;52395.09;5120849;28;19962;-76
2023/05/07 03:48:21;;;;;;;;;;;;;;;-144.99;100.00;52407.31;5121817;28;19931;-77
2023/05/07 03:50:47;;;;;;;;;;;;;;;-144.99;100.00;52368.59;5122604;27;19932;-75
2023/05/07 03:53:14;;;;;;;;;;;;;;;-144.99;100.00;52346.19;5102851;28;19981;-69
2023/05/07 03:55:40;;;;;;;;;;;;;;;-144.99;100.00;52358.41;5112075;28;19912;-79
2023/05/07 03:58:08;;;;;;;;;;;;;;;-144.99;99.90;52362.50;5132263;28;19924;-76
2023/05/07 04:00:38;;;;;;;;;;;;;;;-144.99;99.96;52380.84;5131559;28;19916;-77
2023/05/07 04:03:05;;;;;;;;;;;;;;;-144.99;99.54;52374.72;5125232;28;19987;-76
2023/05/07 04:05:32;;;;;;;;;;;;;;;-144.99;99.19;52362.50;5118525;28;19986;-77
2023/05/07 04:07:59;;;;;;;;;;;;;;;-144.99;99.55;52382.88;5127971;28;19912;-77
2023/05/07 04:10:25;;;;;;;;;;;;;;;-144.99;98.82;52378.78;5120047;28;19983;-77
2023/05/07 04:12:52;;;;;;;;;;;;;;;-144.99;98.93;52370.63;5123131;27;19912;-79
2023/05/07 04:15:20;;;;;;;;;;;;;;;-144.99;98.50;52376.75;5116394;28;19943;-77
2023/05/07 04:17:46;;;;;;;;;;;;;;;-144.99;98.83;52346.19;5116140;28;19998;-77
2023/05/07 04:20:14;;;;;;;;;;;;;;;-144.99;98.47;52411.41;5115045;28;19923;-70
2023/05/07 04:22:41;;;;;;;;;;;;;;;-144.99;97.98;52354.34;5099764;28;19980;-70
2023/05/07 04:25:08;;;;;;;;;;;;;;;-144.99;98.05;52350.25;5102177;28;19923;-69
2023/05/07 04:27:35;;;;;;;;;;;;;;;-144.99;97.93;52358.41;5108057;28;19923;-70
2023/05/07 04:30:02;;;;;;;;;;;;;;;-144.99;97.92;52370.63;5098724;28;19967;-68
2023/05/07 04:32:30;;;;;;;;;;;;;;;-144.99;97.04;52374.72;5095459;28;19925;-67
2023/05/07 04:34:57;;;;;;;;;;;;;;;-144.99;96.50;52380.84;5092306;28;20315;-67
2023/05/07 04:37:23;;;;;;;;;;;;;;;-144.99;96.18;52360.44;5096332;28;19924;-69
2023/05/07 04:39:50;;;;;;;;;;;;;;;-144.99;96.27;52358.41;5092390;28;20114;-69
2023/05/07 04:42:16;;;;;;;;;;;;;;;-144.99;96.37;52362.50;5096136;28;20004;-68
2023/05/07 04:44:44;;;;;;;;;;;;;;;-144.99;96.42;52419.56;5098037;28;20038;-67
2023/05/07 04:47:10;;;;;;;;;;;;;;;-144.99;96.51;52350.25;5094941;28;19959;-66
2023/05/07 04:49:38;;;;;;;;;;;;;;;-144.99;95.62;52370.63;5100337;28;19981;-66
2023/05/07 04:52:05;;;;;;;;;;;;;;;-144.99;96.03;52358.41;5096857;28;20260;-66
2023/05/07 04:54:32;;;;;;;;;;;;;;;-144.99;96.38;52358.41;5094932;28;19928;-67
2023/05/07 04:56:58;;;;;;;;;;;;;;;-144.99;95.53;52356.38;5097702;27;20377;-69
2023/05/07 04:59:25;;;;;;;;;;;;;;;-144.99;95.89;52358.41;5090104;28;19928;-68
2023/05/07 05:01:51;;;;;;;;;;;;;;;-144.99;96.32;52382.88;5090704;28;19924;-67
2023/05/07 05:04:18;;;;;;;;;;;;;;;-144.99;95.86;52346.19;5091389;28;19932;-68
2023/05/07 05:06:45;;;;;;;;;;;;;;;-144.99;95.43;52399.19;5096582;28;20016;-68
2023/05/07 05:09:12;;;;;;;;;;;;;;;-144.99;95.21;52382.88;5097805;28;19928;-68
2023/05/07 05:11:39;;;;;;;;;;;;;;;-144.99;95.09;52350.25;5089369;28;20404;-71
2023/05/07 05:14:06;;;;;;;;;;;;;;;-144.99;94.69;52354.34;5089876;28;19932;-69
2023/05/07 05:16:32;;;;;;;;;;;;;;;-144.99;94.66;52338.03;5092151;28;20065;-69
2023/05/07 05:18:59;;;;;;;;;;;;;;;-144.99;94.68;52342.09;5089571;28;19924;-68
2023/05/07 05:21:25;;;;;;;;;;;;;;;-144.99;93.45;52370.63;5089610;28;19967;-70
2023/05/07 05:23:53;;;;;;;;;;;;;;;-144.99;93.93;52382.88;5089560;28;20307;-69
2023/05/07 05:26:21;;;;;;;;;;;;;;;-144.99;93.64;52366.56;5090986;28;19932;-68
2023/05/07 05:28:47;;;;;;;;;;;;;;;-144.99;93.50;52354.34;5096338;28;19932;-69
2023/05/07 05:31:14;;;;;;;;;;;;;;;-144.99;93.66;52354.34;5090369;28;19954;-69
2023/05/07 05:33:40;;;;;;;;;;;;;;;-144.99;93.59;52350.25;5092945;28;19928;-69
2023/05/07 05:36:07;;;;;;;;;;;;;;;-144.99;93.97;52360.44;5097345;28;19940;-70
2023/05/07 05:38:33;;;;;;;;;;;;;;;-144.99;93.87;52397.13;5101076;28;19928;-71
2023/05/07 05:41:01;;;;;;;;;;;;;;;-144.99;93.17;52354.34;5089577;28;19977;-70
2023/05/07 05:43:28;;;;;;;;;;;;;;;-144.99;93.86;52342.09;5089431;28;19928;-71
2023/05/07 05:45:56;;;;;;;;;;;;;;;-144.99;93.67;52386.94;5094645;28;19924;-70
2023/05/07 05:48:22;;;;;;;;;;;;;;;-144.99;93.58;52327.84;5093241;28;19924;-71
2023/05/07 05:50:49;;;;;;;;;;;;;;;-144.99;93.68;52374.72;5094539;28;20351;-69
2023/05/07 05:53:15;;;;;;;;;;;;;;;-144.99;93.73;52382.88;5098802;28;19928;-74
2023/05/07 05:55:42;;;;;;;;;;;;;;;-144.99;93.46;52366.56;5091671;28;19979;-71
2023/05/07 05:58:10;;;;;;;;;;;;;;;-144.99;93.33;52342.09;5090132;28;19994;-71
2023/05/07 06:00:36;;;;;;;;;;;;;;;-144.99;92.92;52374.72;5096983;28;19928;-72
2023/05/07 06:03:03;;;;;;;;;;;;;;;-144.99;92.90;52348.22;5099850;27;19999;-72
2023/05/07 06:05:30;;;;;;;;;;;;;;;-144.99;93.55;52370.63;5095671;27;19985;-69
2023/05/07 06:07:56;;;;;;;;;;;;;;;-144.99;93.40;52395.09;5098295;28;19924;-70
2023/05/07 06:10:23;;;;;;;;;;;;;;;-144.99;93.74;52388.97;5095430;27;19976;-69
2023/05/07 06:12:50;;;;;;;;;;;;;;;-144.99;93.23;52358.41;5095490;28;20356;-66
2023/05/07 06:15:18;;;;;;;;;;;;;;;-144.99;93.40;52329.88;5091845;28;20121;-71
2023/05/07 06:17:44;;;;;;;;;;;;;;;-144.99;92.94;52368.59;5092987;28;20311;-69
2023/05/07 06:20:11;;;;;;;;;;;;;;;-144.99;93.13;52362.50;5098338;27;20384;-69
2023/05/07 06:22:38;;;;;;;;;;;;;;;-144.99;93.64;52342.09;5097470;28;20624;-70
2023/05/07 06:25:04;;;;;;;;;;;;;;;-144.99;92.85;52378.78;5088472;28;20396;-68
2023/05/07 06:27:31;;;;;;;;;;;;;;;-144.99;92.84;52362.50;5094412;28;20072;-69
2023/05/07 06:29:57;;;;;;;;;;;;;;;-144.99;92.93;52321.72;5092884;28;19924;-69
2023/05/07 06:32:25;;;;;;;;;;;;;;;-144.99;93.33;52325.81;5087893;28;19956;-68
2023/05/07 06:34:52;;;;;;;;;;;;;;;-144.99;92.95;52352.28;5094941;28;19924;-68
2023/05/07 06:37:18;;;;;;;;;;;;;;;-144.99;92.24;52344.16;5101870;28;20108;-68
2023/05/07 06:39:45;;;;;;;;;;;;;;;-144.99;92.18;52380.84;5091197;28;19977;-69
2023/05/07 06:42:11;;;;;;;;;;;;;;;-144.99;92.38;52348.22;5092262;28;19928;-69
2023/05/07 06:44:38;;;;;;;;;;;;;;;-144.99;92.20;52386.94;5086646;28;19936;-68
2023/05/07 06:47:05;;;;;;;;;;;;;;;-144.99;92.33;52372.69;5090886;28;20301;-68
2023/05/07 06:49:33;;;;;;;;;;;;;;;-144.99;92.09;52358.41;5088346;28;19928;-68
2023/05/07 06:51:59;;;;;;;;;;;;;;;-144.99;91.93;52362.50;5096174;28;19939;-68
2023/05/07 06:54:26;;;;;;;;;;;;;;;-144.99;91.65;52370.63;5103214;28;19977;-68
2023/05/07 06:56:52;;;;;;;;;;;;;;;-144.99;91.61;52329.88;5087954;28;20001;-68
2023/05/07 06:59:19;;;;;;;;;;;;;;;-144.99;92.17;52358.41;5096561;28;19987;-71
2023/05/07 07:01:45;;;;;;;;;;;;;;;-144.99;91.42;52358.41;5094517;28;19923;-73
2023/05/07 07:04:12;;;;;;;;;;;;;;;-144.99;91.46;52382.88;5088398;28;20079;-70
2023/05/07 07:06:40;;;;;;;;;;;;;;;-144.99;91.26;52346.19;5089558;28;20304;-71
2023/05/07 07:09:06;;;;;;;;;;;;;;;-144.99;91.63;52329.88;5095344;28;19923;-71
2023/05/07 07:11:33;;;;;;;;;;;;;;;-144.99;91.67;52360.44;5087378;28;20489;-69
2023/05/07 07:13:59;;;;;;;;;;;;;;;-144.99;91.57;52327.84;5094890;28;19970;-69
2023/05/07 07:16:26;;;;;;;;;;;;;;;-144.99;91.25;52350.25;5096868;28;20018;-70
2023/05/07 07:18:52;;;;;;;;;;;;;;;-144.99;90.88;52342.09;5092121;28;19924;-71
2023/05/07 07:21:19;;;;;;;;;;;;;;;-144.99;91.29;52333.94;5098374;28;20377;-71
2023/05/07 07:23:47;;;;;;;;;;;;;;;-144.99;90.66;52329.88;5098847;28;20005;-72
2023/05/07 07:26:14;;;;;;;;;;;;;;;-144.99;89.67;52325.81;5099725;28;20341;-72
2023/05/07 07:28:44;;;;;;;;;;;;;;;-144.99;89.79;52358.41;5098048;28;19924;-65
2023/05/07 07:31:11;;;;;;;;;;;;;;;-144.99;90.20;52333.94;5094120;28;19936;-69
2023/05/07 07:33:37;;;;;;;;;;;;;;;-144.99;90.23;52370.63;5101067;28;20319;-70
2023/05/07 07:36:05;;;;;;;;;;;;;;;-144.99;90.54;52376.75;5094653;28;19932;-69
2023/05/07 07:38:31;;;;;;;;;;;;;;;-144.99;89.71;52362.50;5087454;28;19924;-70
2023/05/07 07:40:59;;;;;;;;;;;;;;;-144.99;89.94;52342.09;5087972;28;19947;-69
2023/05/07 07:43:25;;;;;;;;;;;;;;;-144.99;90.17;52346.19;5096408;28;19930;-69
2023/05/07 07:45:52;;;;;;;;;;;;;;;-144.99;89.82;52393.06;5095196;28;20024;-70
2023/05/07 07:48:18;;;;;;;;;;;;;;;-144.99;90.20;52350.25;5095286;28;20018;-73
2023/05/07 07:50:45;;;;;;;;;;;;;;;-144.99;90.76;52364.53;5090933;28;19924;-70
2023/05/07 07:53:11;;;;;;;;;;;;;;;-144.99;91.59;52305.41;5099258;28;19969;-70
2023/05/07 07:55:39;;;;;;;;;;;;;;;-144.99;91.70;52391.03;5092890;28;20377;-69
2023/05/07 07:58:07;;;;;;;;;;;;;;;-144.99;90.93;52309.50;5089151;28;19928;-69
2023/05/07 08:00:33;;;;;;;;;;;;;;;-144.99;91.22;52327.84;5087309;28;19924;-70
2023/05/07 08:03:00;;;;;;;;;;;;;;;-144.99;91.02;52340.06;5093940;28;19925;-69
2023/05/07 08:05:26;;;;;;;;;;;;;;;-144.99;90.95;52354.34;5090034;28;19928;-71
2023/05/07 08:07:53;;;;;;;;;;;;;;;-144.99;90.94;52350.25;5094028;28;19989;-64
2023/05/07 08:10:21;;;;;;;;;;;;;;;-144.99;90.51;52368.59;5091455;28;19928;-64
2023/05/07 08:12:47;;;;;;;;;;;;;;;-144.99;88.38;52342.09;5089788;28;20089;-64
2023/05/07 08:15:15;;;;;;;;;;;;;;;-144.99;88.02;52342.09;5088299;28;19924;-63
2023/05/07 08:17:42;;;;;;;;;;;;;;;-144.99;87.34;52350.25;5088477;28;20404;-66
2023/05/07 08:20:09;;;;;;;;;;;;;;;-144.99;87.65;52370.63;5090286;28;19963;-66
2023/05/07 08:22:35;;;;;;;;;;;;;;;-144.99;87.97;52342.09;5098124;27;20304;-65
2023/05/07 08:25:02;;;;;;;;;;;;;;;-144.99;87.63;52344.16;5093818;28;19935;-66
2023/05/07 08:27:28;;;;;;;;;;;;;;;-144.99;87.65;52346.19;5100056;28;19955;-64
2023/05/07 08:29:57;;;;;;;;;;;;;;;-144.99;88.00;52366.56;5099238;27;19971;-65
2023/05/07 08:32:25;;;;;;;;;;;;;;;-144.99;87.53;52344.16;5097186;28;19934;-65
2023/05/07 08:34:51;;;;;;;;;;;;;;;-144.99;87.34;52356.38;5091304;28;19956;-65
2023/05/07 08:37:18;;;;;;;;;;;;;;;-144.99;87.42;52358.41;5096941;28;20333;-64
2023/05/07 08:39:44;;;;;;;;;;;;;;;-144.99;87.28;52354.34;5095224;28;20020;-64
2023/05/07 08:42:12;;;;;;;;;;;;;;;-144.99;87.93;52370.63;5098218;28;19939;-64
2023/05/07 08:44:39;;;;;;;;;;;;;;;-144.99;87.32;52350.25;5101758;28;20024;-64
2023/05/07 08:47:07;;;;;;;;;;;;;;;-144.99;87.17;52297.25;5091262;28;19967;-65
2023/05/07 08:49:35;;;;;;;;;;;;;;;-144.99;86.84;52362.50;5089379;28;20285;-64
2023/05/07 08:52:02;;;;;;;;;;;;;;;-144.99;86.89;52329.88;5098794;28;20346;-64
2023/05/07 08:54:29;;;;;;;;;;;;;;;-144.99;86.65;52346.19;5093738;28;20292;-64
2023/05/07 08:56:56;;;;;;;;;;;;;;;-144.99;86.69;52350.25;5089000;27;19967;-64
2023/05/07 08:59:23;;;;;;;;;;;;;;;-144.99;86.77;52344.16;5092204;28;20259;-64
2023/05/07 09:01:49;;;;;;;;;;;;;;;-144.99;86.62;52338.03;5094928;28;20389;-65
2023/05/07 09:04:16;;;;;;;;;;;;;;;-144.99;87.28;52331.91;5100160;28;19928;-65
2023/05/07 09:06:44;;;;;;;;;;;;;;;-144.99;86.51;52354.34;5093548;28;20294;-65
2023/05/07 09:09:15;;;;;;;;;;;;;;;-144.99;86.12;52340.06;5096440;28;19967;-65
2023/05/07 09:11:42;;;;;;;;;;;;;;;-144.99;85.96;52329.88;5095754;28;20001;-65
2023/05/07 09:14:08;;;;;;;;;;;;;;;-144.99;86.14;52350.25;5101520;28;19978;-65
2023/05/07 09:16:35;;;;;;;;;;;;;;;-144.99;85.46;52321.72;5090283;28;20342;-65
2023/05/07 09:19:01;;;;;;;;;;;;;;;-144.99;85.52;52321.72;5099555;28;20490;-65
2023/05/07 09:21:28;;;;;;;;;;;;;;;-144.99;85.88;52329.88;5093271;28;19924;-65
2023/05/07 09:23:56;;;;;;;;;;;;;;;-144.99;85.90;52336.00;5088297;28;19928;-65
2023/05/07 09:26:23;;;;;;;;;;;;;;;-144.99;85.46;52305.41;5092637;28;20035;-66
2023/05/07 09:28:49;;;;;;;;;;;;;;;-144.99;85.57;52297.25;5096334;28;19932;-65
2023/05/07 09:31:16;;;;;;;;;;;;;;;-144.99;85.21;52313.56;5086485;28;19982;-65
2023/05/07 09:33:42;;;;;;;;;;;;;;;-144.99;85.12;52350.25;5104813;28;19985;-65
2023/05/07 09:36:10;;;;;;;;;;;;;;;-144.99;85.03;52350.25;5100232;28;19962;-65
2023/05/07 09:38:37;;;;;;;;;;;;;;;-144.99;85.32;52358.41;5098166;28;19931;-65
2023/05/07 09:41:06;;;;;;;;;;;;;;;-144.99;85.29;52354.34;5100328;28;19935;-67
2023/05/07 09:43:34;;;;;;;;;;;;;;;-144.99;85.28;52342.09;5091477;28;19959;-65
2023/05/07 09:46:02;;;;;;;;;;;;;;;-144.99;85.16;52342.09;5088664;28;19927;-65
2023/05/07 09:48:30;;;;;;;;;;;;;;;-144.99;85.12;52333.94;5089170;28;19928;-66
2023/05/07 09:50:58;;;;;;;;;;;;;;;-144.99;84.73;52350.25;5093646;28;19959;-65
2023/05/07 09:53:25;;;;;;;;;;;;;;;-144.99;84.35;52352.28;5098418;28;20475;-65
2023/05/07 09:55:52;;;;;;;;;;;;;;;-144.99;84.55;52376.75;5102022;28;19928;-65
2023/05/07 09:58:22;;;;;;;;;;;;;;;-144.99;84.25;52354.34;5089992;27;19932;-65
2023/05/07 10:00:50;;;;;;;;;;;;;;;-144.99;84.52;52352.28;5100887;28;19938;-65
2023/05/07 10:03:17;;;;;;;;;;;;;;;-144.99;84.58;52366.56;5090986;27;20163;-65
2023/05/07 10:05:44;;;;;;;;;;;;;;;-144.99;84.65;52354.34;5090626;28;19959;-65
2023/05/07 10:08:11;;;;;;;;;;;;;;;-144.99;84.36;52352.28;5099622;28;20491;-65
2023/05/07 10:10:37;;;;;;;;;;;;;;;-144.99;84.38;52350.25;5099351;28;19928;-65
2023/05/07 10:13:09;;;;;;;;;;;;;;;-144.99;84.41;52358.41;5094435;28;19924;-65
2023/05/07 10:15:37;;;;;;;;;;;;;;;-144.99;83.87;52329.88;5099478;28;19923;-65
2023/05/07 10:18:04;;;;;;;;;;;;;;;-144.99;83.82;52346.19;5090201;28;20231;-67
2023/05/07 10:20:32;;;;;;;;;;;;;;;-144.99;83.61;52348.22;5091383;28;20699;-65
2023/05/07 10:22:59;;;;;;;;;;;;;;;-144.99;83.34;52338.03;5094425;28;19984;-66
2023/05/07 10:25:29;;;;;;;;;;;;;;;-144.99;83.70;52338.03;5094737;28;19935;-65
2023/05/07 10:27:56;;;;;;;;;;;;;;;-144.99;83.39;52342.09;5089151;28;20457;-65
2023/05/07 10:30:28;;;;;;;;;;;;;;;-144.99;84.54;52329.88;5101744;28;20320;-65
2023/05/07 10:32:57;;;;;;;;;;;;;;;-144.99;84.69;52313.56;5089986;28;20333;-64
2023/05/07 10:35:26;;;;;;;;;;;;;;;-144.99;85.08;52325.81;5089033;28;19935;-66
2023/05/07 10:37:53;;;;;;;;;;;;;;;-144.99;85.09;52376.75;5091512;28;19981;-64
2023/05/07 10:40:21;;;;;;;;;;;;;;;-144.99;85.22;52321.72;5086874;28;20012;-64
2023/05/07 10:42:59;;;;;;;;;;;;;;;-144.99;85.38;52358.41;5095527;28;19967;-66
2023/05/07 10:45:26;;;;;;;;;;;;;;;-144.99;85.23;52362.50;5094628;28;19969;-64
2023/05/07 10:48:10;;;;;;;;;;;;;;;-144.99;84.72;52378.78;5092243;28;19924;-66
2023/05/07 10:50:37;;;;;;;;;;;;;;;-144.99;84.71;52333.94;5093892;28;20172;-66
2023/05/07 10:53:24;;;;;;;;;;;;;;;-144.99;84.31;52331.91;5092430;28;19956;-66
2023/05/07 10:55:51;;;;;;;;;;;;;;;-144.99;84.10;52333.94;5092220;28;19928;-66
2023/05/07 10:58:24;;;;;;;;;;;;;;;-144.99;84.19;52346.19;5088163;28;19924;-65
2023/05/07 11:00:52;;;;;;;;;;;;;;;-144.99;83.59;52374.72;5093882;28;19932;-66
2023/05/07 11:03:22;;;;;;;;;;;;;;;-144.99;82.88;52362.50;5091000;28;20466;-66
2023/05/07 11:05:48;;;;;;;;;;;;;;;-144.99;82.96;52338.03;5099246;28;20392;-66
2023/05/07 11:08:15;;;;;;;;;;;;;;;-144.99;83.08;52313.56;5104673;28;19985;-66
2023/05/07 11:10:51;;;;;;;;;;;;;;;-144.99;83.17;52321.72;5098488;28;19928;-66
2023/05/07 11:13:18;;;;;;;;;;;;;;;-144.99;82.80;52331.91;5095670;28;20352;-66
2023/05/07 11:15:45;;;;;;;;;;;;;;;-144.99;82.57;52325.81;5099906;28;19924;-67
2023/05/07 11:18:13;;;;;;;;;;;;;;;-144.99;82.67;52350.25;5091278;28;19979;-65
2023/05/07 11:20:48;;;;;;;;;;;;;;;-144.99;82.53;52323.75;5093701;28;19949;-65
2023/05/07 11:23:42;;;;;;;;;;;;;;;-144.99;81.88;52301.34;5094857;28;19924;-66
2023/05/07 11:26:09;;;;;;;;;;;;;;;-144.99;81.59;52321.72;5087848;28;20022;-65
2023/05/07 11:28:37;;;;;;;;;;;;;;;-144.99;81.91;52329.88;5082436;28;19928;-65
2023/05/07 11:31:04;;;;;;;;;;;;;;;-144.99;81.24;52325.81;5086443;28;20028;-65
2023/05/07 11:33:31;;;;;;;;;;;;;;;-144.99;80.95;52297.25;5083579;28;19959;-67
2023/05/07 11:36:00;;;;;;;;;;;;;;;-144.99;80.04;52305.41;5083304;28;19935;-66
2023/05/07 11:38:27;;;;;;;;;;;;;;;-144.99;79.20;52301.34;5082417;28;19931;-66
2023/05/07 11:40:53;;;;;;;;;;;;;;;-144.99;78.78;52244.28;5082515;28;20464;-66
2023/05/07 11:43:20;;;;;;;;;;;;;;;-144.99;79.58;52285.03;5080491;28;21100;-65
2023/05/07 11:45:47;;;;;;;;;;;;;;;-144.99;79.02;52329.88;5085955;28;19936;-67
2023/05/07 11:48:14;;;;;;;;;;;;;;;-144.99;79.21;52297.25;5086279;28;20015;-66
2023/05/07 11:50:53;;;;;;;;;;;;;;;-144.99;78.60;52301.34;5081626;28;20300;-66
2023/05/07 11:53:21;;;;;;;;;;;;;;;-144.99;78.20;52291.16;5082337;28;20377;-66
2023/05/07 11:55:47;;;;;;;;;;;;;;;-144.99;77.94;52280.97;5083290;28;20081;-67
2023/05/07 11:58:21;;;;;;;;;;;;;;;-144.99;77.56;52264.66;5096446;28;19970;-66
2023/05/07 12:00:49;;;;;;;;;;;;;;;-144.99;77.25;52268.72;5101331;28;20800;-68
2023/05/07 12:03:15;;;;;;;;;;;;;;;-144.99;76.95;52268.72;5100081;28;19928;-66
2023/05/07 12:05:42;;;;;;;;;;;;;;;-144.99;76.72;52266.69;5092918;28;20070;-67
2023/05/07 12:08:09;;;;;;;;;;;;;;;-144.99;76.86;52264.66;5097902;28;19963;-67
2023/05/07 12:10:41;;;;;;;;;;;;;;;-144.99;76.14;52248.34;5090702;28;20046;-67
2023/05/07 12:13:14;;;;;;;;;;;;;;;-144.99;75.95;52244.28;5097395;28;20008;-67
2023/05/07 12:15:41;;;;;;;;;;;;;;;-144.99;75.64;52276.88;5098814;28;20289;-67
2023/05/07 12:18:08;;;;;;;;;;;;;;;-144.99;75.95;52278.91;5100873;28;19967;-68
2023/05/07 12:20:35;;;;;;;;;;;;;;;-144.99;76.00;52268.72;5092964;28;20009;-68
2023/05/07 12:23:02;;;;;;;;;;;;;;;-144.99;76.30;52280.97;5095877;28;20369;-68